Time;durP1;ratioP1;P1;durP2;ratioP2;P2;SDS_P1;SDS_P2;PMS_P1;PMS_P2;Temp;Humidity;BMP_temperature;BMP_pressure;BME280_temperature;BME280_humidity;BME280_pressure;Samples;Min_cycle;Max_cycle;Signal;HPM_P1;HPM_P2
2022/05/05 00:01:58;;;;;;;;;;;21.40;51.50;;;;;;5096241;28;19924;-46
2022/05/05 00:04:25;;;;;;;;;;;21.40;51.50;;;;;;5078341;28;19934;-48
2022/05/05 00:06:53;;;;;;;;;;;21.40;51.60;;;;;;5095712;28;19931;-49
2022/05/05 00:09:20;;;;;;;;;;;21.40;51.50;;;;;;5095999;28;20327;-50
2022/05/05 00:14:32;;;;;;;;;;;21.40;51.50;;;;;;5096029;28;20304;-54
2022/05/05 00:17:07;;;;;;;;;;;21.40;51.50;;;;;;5094294;28;19938;-51
2022/05/05 00:19:36;;;;;;;;;;;21.40;51.50;;;;;;5095798;28;19955;-47
2022/05/05 00:22:04;;;;;;;;;;;21.40;51.50;;;;;;5095791;28;20334;-48
2022/05/05 00:24:32;;;;;;;;;;;21.40;51.50;;;;;;5095260;28;19924;-47
2022/05/05 00:27:00;;;;;;;;;;;21.40;51.50;;;;;;5095831;28;19924;-49
2022/05/05 00:29:27;;;;;;;;;;;21.40;51.50;;;;;;5095996;28;19956;-49
2022/05/05 00:31:54;;;;;;;;;;;21.40;51.50;;;;;;5095998;28;19931;-46
2022/05/05 00:34:21;;;;;;;;;;;21.40;51.60;;;;;;5095762;28;20355;-48
2022/05/05 00:36:48;;;;;;;;;;;21.40;51.60;;;;;;5095272;28;19935;-46
2022/05/05 00:39:15;;;;;;;;;;;21.40;51.60;;;;;;5102899;28;19931;-51
2022/05/05 00:41:44;;;;;;;;;;;21.40;51.60;;;;;;5095817;28;19931;-48
2022/05/05 00:44:11;;;;;;;;;;;21.30;51.50;;;;;;5095741;28;19924;-47
2022/05/05 00:46:39;;;;;;;;;;;21.40;51.60;;;;;;5094404;28;19931;-47
2022/05/05 00:49:06;;;;;;;;;;;21.40;51.60;;;;;;5095093;28;19924;-46
2022/05/05 00:51:33;;;;;;;;;;;21.40;51.60;;;;;;5095331;28;19931;-50
2022/05/05 00:54:00;;;;;;;;;;;21.30;51.50;;;;;;5095216;28;19924;-50
2022/05/05 00:56:28;;;;;;;;;;;21.40;51.60;;;;;;5095217;28;19925;-47
2022/05/05 00:58:56;;;;;;;;;;;21.40;51.60;;;;;;5095762;28;20287;-48
2022/05/05 01:01:30;;;;;;;;;;;21.40;51.60;;;;;;5095347;28;20011;-48
2022/05/05 01:03:57;;;;;;;;;;;21.40;51.60;;;;;;5095399;28;20342;-47
2022/05/05 01:06:24;;;;;;;;;;;21.30;51.50;;;;;;5094973;28;19931;-47
2022/05/05 01:08:51;;;;;;;;;;;21.30;51.50;;;;;;5089409;28;19925;-48
2022/05/05 01:11:18;;;;;;;;;;;21.40;51.60;;;;;;5074596;28;19936;-48
2022/05/05 01:13:45;;;;;;;;;;;21.40;51.60;;;;;;5086255;28;20376;-54
2022/05/05 01:16:12;;;;;;;;;;;21.40;51.60;;;;;;5095296;28;19931;-49
2022/05/05 01:18:40;;;;;;;;;;;21.30;51.50;;;;;;5095161;28;19928;-50
2022/05/05 01:21:08;;;;;;;;;;;21.40;51.60;;;;;;5094696;28;20355;-47
2022/05/05 01:23:35;;;;;;;;;;;21.40;51.60;;;;;;5093827;28;19931;-48
2022/05/05 01:28:49;;;;;;;;;;;21.30;51.50;;;;;;5094815;28;19928;-48
2022/05/05 01:31:15;;;;;;;;;;;21.40;51.70;;;;;;5076550;28;20390;-50
2022/05/05 01:33:42;;;;;;;;;;;21.30;52.10;;;;;;5094790;28;19948;-47
2022/05/05 01:36:11;;;;;;;;;;;21.40;51.60;;;;;;5081710;28;19925;-47
2022/05/05 01:38:40;;;;;;;;;;;21.30;51.50;;;;;;5093876;28;19928;-47
2022/05/05 01:41:09;;;;;;;;;;;21.30;51.50;;;;;;5111343;28;19928;-48
2022/05/05 01:43:37;;;;;;;;;;;21.40;51.60;;;;;;5094115;28;20788;-48
2022/05/05 01:46:05;;;;;;;;;;;21.30;51.50;;;;;;5094098;28;20380;-47
2022/05/05 01:48:32;;;;;;;;;;;21.40;51.60;;;;;;5094545;28;19947;-47
2022/05/05 01:51:00;;;;;;;;;;;21.30;51.50;;;;;;5093925;28;19935;-47
2022/05/05 01:53:27;;;;;;;;;;;21.30;51.50;;;;;;5094150;28;20389;-47
2022/05/05 01:55:54;;;;;;;;;;;21.30;51.50;;;;;;5093798;28;19924;-48
2022/05/05 01:58:23;;;;;;;;;;;21.30;51.50;;;;;;5093747;28;20269;-47
2022/05/05 02:00:50;;;;;;;;;;;21.40;51.60;;;;;;5093892;28;19924;-46
2022/05/05 02:03:18;;;;;;;;;;;21.30;51.50;;;;;;5093717;28;19924;-49
2022/05/05 02:05:45;;;;;;;;;;;21.40;51.60;;;;;;5093456;28;19969;-47
2022/05/05 02:08:13;;;;;;;;;;;21.30;51.50;;;;;;5093999;28;19928;-47
2022/05/05 02:10:40;;;;;;;;;;;21.30;51.50;;;;;;5091450;28;19954;-48
2022/05/05 02:13:07;;;;;;;;;;;21.30;51.60;;;;;;5093851;28;19924;-47
2022/05/05 02:15:34;;;;;;;;;;;21.30;51.60;;;;;;5093720;28;19969;-47
2022/05/05 02:18:12;;;;;;;;;;;21.30;51.60;;;;;;5094203;28;19932;-48
2022/05/05 02:20:40;;;;;;;;;;;21.30;51.60;;;;;;5093484;28;19924;-47
2022/05/05 02:23:08;;;;;;;;;;;21.30;51.60;;;;;;5093641;28;20039;-47
2022/05/05 02:25:35;;;;;;;;;;;21.30;51.60;;;;;;5093336;28;20426;-47
2022/05/05 02:28:02;;;;;;;;;;;21.30;51.60;;;;;;5093585;28;19924;-51
2022/05/05 02:30:29;;;;;;;;;;;21.30;51.60;;;;;;5093232;28;20375;-49
2022/05/05 02:32:57;;;;;;;;;;;21.30;51.60;;;;;;5093512;28;19924;-53
2022/05/05 02:35:24;;;;;;;;;;;21.30;51.60;;;;;;5092972;28;19924;-48
2022/05/05 02:40:37;;;;;;;;;;;21.30;51.60;;;;;;5098647;28;19935;-52
2022/05/05 02:43:04;;;;;;;;;;;21.30;51.60;;;;;;5113567;28;19927;-50
2022/05/05 02:45:31;;;;;;;;;;;21.30;51.60;;;;;;5113771;28;19969;-49
2022/05/05 02:47:58;;;;;;;;;;;21.30;51.60;;;;;;5113909;28;19927;-50
2022/05/05 02:50:25;;;;;;;;;;;21.30;51.60;;;;;;5113392;28;19927;-49
2022/05/05 02:52:53;;;;;;;;;;;21.30;51.60;;;;;;5113541;28;19924;-49
2022/05/05 02:55:21;;;;;;;;;;;21.30;51.60;;;;;;5113102;28;20367;-48
2022/05/05 02:57:48;;;;;;;;;;;21.30;51.60;;;;;;5101284;28;19978;-49
2022/05/05 03:00:15;;;;;;;;;;;21.30;51.60;;;;;;5092848;28;19932;-53
2022/05/05 03:02:43;;;;;;;;;;;21.30;51.60;;;;;;5093414;28;19931;-52
2022/05/05 03:05:11;;;;;;;;;;;21.30;51.60;;;;;;5091249;28;19985;-55
2022/05/05 03:07:38;;;;;;;;;;;21.30;51.60;;;;;;5092813;28;19924;-52
2022/05/05 03:10:05;;;;;;;;;;;21.30;51.60;;;;;;5077558;28;20285;-50
2022/05/05 03:12:32;;;;;;;;;;;21.30;51.60;;;;;;5077098;28;19964;-50
2022/05/05 03:14:59;;;;;;;;;;;21.30;51.70;;;;;;5076713;28;20384;-48
2022/05/05 03:17:26;;;;;;;;;;;21.30;51.60;;;;;;5076527;28;20399;-51
2022/05/05 03:19:53;;;;;;;;;;;21.30;51.60;;;;;;5077380;28;19990;-52
2022/05/05 03:22:21;;;;;;;;;;;21.30;51.60;;;;;;5081766;28;19974;-49
2022/05/05 03:24:48;;;;;;;;;;;21.30;51.60;;;;;;5096821;28;19928;-47
2022/05/05 03:27:15;;;;;;;;;;;21.30;51.60;;;;;;5096968;28;19928;-51
2022/05/05 03:29:42;;;;;;;;;;;21.30;51.60;;;;;;5096711;28;19931;-54
2022/05/05 03:32:09;;;;;;;;;;;21.30;51.60;;;;;;5096799;28;19924;-48
2022/05/05 03:34:36;;;;;;;;;;;21.30;51.60;;;;;;5097126;28;19928;-48
2022/05/05 03:37:03;;;;;;;;;;;21.30;51.70;;;;;;5096660;28;19924;-47
2022/05/05 03:39:30;;;;;;;;;;;21.30;51.60;;;;;;5113864;28;19923;-48
2022/05/05 03:41:57;;;;;;;;;;;21.30;51.60;;;;;;5116774;28;19924;-47
2022/05/05 03:44:24;;;;;;;;;;;21.30;51.60;;;;;;5116566;28;19931;-48
2022/05/05 03:46:51;;;;;;;;;;;21.30;51.60;;;;;;5117437;28;19947;-49
2022/05/05 03:49:18;;;;;;;;;;;21.30;51.60;;;;;;5117146;28;19973;-47
2022/05/05 03:51:45;;;;;;;;;;;21.30;51.60;;;;;;5116733;28;19947;-48
2022/05/05 03:54:12;;;;;;;;;;;21.30;51.60;;;;;;5102912;28;19928;-47
2022/05/05 03:56:40;;;;;;;;;;;21.30;51.60;;;;;;5096567;28;20264;-49
2022/05/05 03:59:06;;;;;;;;;;;21.30;51.60;;;;;;5096379;28;19928;-51
2022/05/05 04:01:34;;;;;;;;;;;21.30;51.60;;;;;;5094367;28;19924;-47
2022/05/05 04:04:01;;;;;;;;;;;21.30;51.50;;;;;;5096551;28;19930;-48
2022/05/05 04:06:28;;;;;;;;;;;21.40;51.60;;;;;;5096055;28;20374;-48
2022/05/05 04:08:55;;;;;;;;;;;21.40;51.60;;;;;;5090184;28;20406;-51
2022/05/05 04:11:22;;;;;;;;;;;21.30;51.50;;;;;;5076068;28;20303;-47
2022/05/05 04:13:49;;;;;;;;;;;21.30;52.10;;;;;;5075867;28;19936;-50
2022/05/05 04:16:16;;;;;;;;;;;21.30;51.50;;;;;;5075776;28;20299;-47
2022/05/05 04:18:44;;;;;;;;;;;21.40;51.60;;;;;;5081771;28;20018;-49
2022/05/05 04:21:11;;;;;;;;;;;21.40;51.50;;;;;;5095424;28;19928;-50
2022/05/05 04:23:38;;;;;;;;;;;21.40;51.50;;;;;;5093560;28;19928;-47
2022/05/05 04:26:12;;;;;;;;;;;21.40;51.50;;;;;;5075564;28;19935;-50
2022/05/05 04:28:41;;;;;;;;;;;21.40;51.50;;;;;;5090608;28;19929;-48
2022/05/05 04:31:10;;;;;;;;;;;21.40;51.50;;;;;;5075753;28;19947;-51
2022/05/05 04:33:38;;;;;;;;;;;21.40;51.50;;;;;;5075280;28;19958;-48
2022/05/05 04:36:05;;;;;;;;;;;21.40;51.50;;;;;;5075221;28;19932;-47
2022/05/05 04:38:32;;;;;;;;;;;21.40;51.40;;;;;;5093096;28;20395;-47
2022/05/05 04:41:00;;;;;;;;;;;21.40;51.40;;;;;;5115804;28;19923;-49
2022/05/05 04:43:27;;;;;;;;;;;21.40;51.40;;;;;;5115741;28;19998;-48
2022/05/05 04:45:54;;;;;;;;;;;21.50;52.00;;;;;;5104844;28;20426;-48
2022/05/05 04:48:21;;;;;;;;;;;21.50;51.40;;;;;;5095667;28;19964;-48
2022/05/05 04:50:48;;;;;;;;;;;21.50;51.40;;;;;;5076779;28;19931;-48
2022/05/05 04:53:14;;;;;;;;;;;21.50;51.40;;;;;;5095584;28;19924;-47
2022/05/05 04:55:41;;;;;;;;;;;21.50;51.30;;;;;;5095531;28;20299;-47
2022/05/05 04:58:08;;;;;;;;;;;21.50;51.30;;;;;;5092824;28;19928;-49
2022/05/05 05:00:36;;;;;;;;;;;21.50;51.30;;;;;;5095032;28;19928;-49
2022/05/05 05:03:03;;;;;;;;;;;21.50;51.30;;;;;;5095451;28;19931;-48
2022/05/05 05:05:30;;;;;;;;;;;21.50;51.20;;;;;;5094884;28;20442;-48
2022/05/05 05:07:57;;;;;;;;;;;21.60;51.20;;;;;;5095376;28;19924;-47
2022/05/05 05:10:24;;;;;;;;;;;21.60;51.20;;;;;;5076504;28;19924;-47
2022/05/05 05:12:51;;;;;;;;;;;21.60;51.10;;;;;;5074578;28;19939;-48
2022/05/05 05:15:18;;;;;;;;;;;21.60;51.10;;;;;;5083321;28;19924;-48
2022/05/05 05:17:45;;;;;;;;;;;21.70;51.10;;;;;;5094706;28;19924;-50
2022/05/05 05:20:12;;;;;;;;;;;21.60;51.00;;;;;;5094637;28;19974;-48
2022/05/05 05:22:39;;;;;;;;;;;21.70;51.10;;;;;;5094770;28;20269;-48
2022/05/05 05:25:06;;;;;;;;;;;21.70;51.10;;;;;;5093853;28;19924;-50
2022/05/05 05:27:33;;;;;;;;;;;21.60;51.00;;;;;;5094331;28;19947;-47
2022/05/05 05:30:01;;;;;;;;;;;21.70;51.10;;;;;;5094808;28;19928;-48
2022/05/05 05:32:28;;;;;;;;;;;21.70;51.10;;;;;;5094337;28;19928;-47
2022/05/05 05:34:55;;;;;;;;;;;21.60;51.00;;;;;;5093650;28;19974;-46
2022/05/05 05:37:22;;;;;;;;;;;21.60;51.10;;;;;;5094316;28;19924;-49
2022/05/05 05:39:49;;;;;;;;;;;21.60;51.10;;;;;;5114169;28;19934;-47
2022/05/05 05:42:18;;;;;;;;;;;21.60;51.00;;;;;;5114769;28;19923;-50
2022/05/05 05:44:45;;;;;;;;;;;21.60;51.00;;;;;;5114602;28;20394;-47
2022/05/05 05:47:12;;;;;;;;;;;21.70;51.10;;;;;;5096324;28;20379;-49
2022/05/05 05:49:39;;;;;;;;;;;21.70;51.10;;;;;;5094112;28;19932;-47
2022/05/05 05:52:07;;;;;;;;;;;21.60;51.00;;;;;;5076217;28;19924;-47
2022/05/05 05:54:33;;;;;;;;;;;21.70;51.00;;;;;;5092534;28;19924;-48
2022/05/05 05:57:00;;;;;;;;;;;21.70;51.00;;;;;;5094184;28;20306;-46
2022/05/05 05:59:27;;;;;;;;;;;21.70;51.00;;;;;;5093791;28;20338;-47
2022/05/05 06:04:40;;;;;;;;;;;21.70;50.90;;;;;;5093942;28;19928;-47
2022/05/05 06:07:07;;;;;;;;;;;21.70;50.90;;;;;;5093834;28;19924;-48
2022/05/05 06:09:34;;;;;;;;;;;21.70;50.90;;;;;;5104681;28;19923;-48
2022/05/05 06:12:03;;;;;;;;;;;21.70;50.90;;;;;;5101789;28;19939;-47
2022/05/05 06:14:30;;;;;;;;;;;21.70;50.90;;;;;;5093778;28;19924;-48
2022/05/05 06:16:58;;;;;;;;;;;21.70;50.90;;;;;;5093598;28;19931;-48
2022/05/05 06:19:25;;;;;;;;;;;21.70;50.80;;;;;;5093631;28;20399;-47
2022/05/05 06:21:52;;;;;;;;;;;21.80;50.90;;;;;;5093789;28;20291;-49
2022/05/05 06:24:19;;;;;;;;;;;21.70;50.80;;;;;;5093258;28;20014;-48
2022/05/05 06:26:46;;;;;;;;;;;21.80;50.80;;;;;;5093493;28;19931;-50
2022/05/05 06:29:13;;;;;;;;;;;21.80;50.80;;;;;;5093482;28;19924;-48
2022/05/05 06:31:40;;;;;;;;;;;21.80;50.70;;;;;;5073689;28;19924;-47
2022/05/05 06:34:09;;;;;;;;;;;21.80;50.70;;;;;;5073240;28;20306;-47
2022/05/05 06:36:36;;;;;;;;;;;21.80;50.60;;;;;;5073028;28;19947;-51
2022/05/05 06:39:03;;;;;;;;;;;21.80;50.60;;;;;;5099825;28;19927;-45
2022/05/05 06:41:30;;;;;;;;;;;21.90;50.70;;;;;;5112424;28;20352;-49
2022/05/05 06:43:57;;;;;;;;;;;21.90;50.60;;;;;;5093145;28;19990;-48
2022/05/05 06:46:24;;;;;;;;;;;21.80;50.50;;;;;;5091318;28;19924;-49
2022/05/05 06:48:56;;;;;;;;;;;21.80;50.50;;;;;;5092646;28;20388;-47
2022/05/05 06:51:23;;;;;;;;;;;21.90;50.60;;;;;;5092532;28;20402;-51
2022/05/05 06:53:51;;;;;;;;;;;21.90;50.50;;;;;;5092234;28;20387;-47
2022/05/05 06:56:18;;;;;;;;;;;21.90;50.50;;;;;;5092863;28;19924;-48
2022/05/05 06:58:45;;;;;;;;;;;21.90;50.50;;;;;;5092723;28;20372;-48
2022/05/05 07:06:43;;;;;;;;;;;21.90;50.50;;;;;;5093266;28;19932;-48
2022/05/05 07:11:55;;;;;;;;;;;21.90;50.50;;;;;;5084197;28;19935;-48
2022/05/05 07:14:22;;;;;;;;;;;21.90;50.50;;;;;;5092894;28;19936;-49
2022/05/05 07:16:50;;;;;;;;;;;21.90;50.50;;;;;;5092591;28;20375;-51
2022/05/05 07:19:18;;;;;;;;;;;21.90;50.50;;;;;;5092310;28;20023;-47
2022/05/05 07:21:45;;;;;;;;;;;21.90;50.50;;;;;;5093043;28;19924;-49
2022/05/05 07:24:12;;;;;;;;;;;21.90;50.50;;;;;;5092496;28;19931;-51
2022/05/05 07:26:39;;;;;;;;;;;21.90;50.50;;;;;;5092727;28;19932;-50
2022/05/05 07:29:06;;;;;;;;;;;21.90;50.50;;;;;;5092913;28;19924;-49
2022/05/05 07:31:33;;;;;;;;;;;21.90;50.50;;;;;;5092891;28;19925;-47
2022/05/05 07:34:00;;;;;;;;;;;21.90;50.50;;;;;;5092831;28;19946;-47
2022/05/05 07:36:27;;;;;;;;;;;21.90;50.40;;;;;;5092551;28;19959;-49
2022/05/05 07:38:55;;;;;;;;;;;22.00;50.50;;;;;;5090472;28;20323;-47
2022/05/05 07:41:22;;;;;;;;;;;22.00;50.40;;;;;;5072716;28;19924;-47
2022/05/05 07:43:52;;;;;;;;;;;22.00;50.40;;;;;;5072548;28;19958;-52
2022/05/05 07:46:19;;;;;;;;;;;22.00;50.40;;;;;;5075249;28;19924;-49
2022/05/05 07:48:46;;;;;;;;;;;22.00;50.30;;;;;;5093235;28;19924;-51
2022/05/05 07:51:13;;;;;;;;;;;22.10;50.40;;;;;;5093032;28;20023;-47
2022/05/05 07:53:40;;;;;;;;;;;22.10;50.40;;;;;;5092221;28;20382;-47
2022/05/05 07:56:07;;;;;;;;;;;22.00;50.30;;;;;;5092409;28;19981;-47
2022/05/05 07:58:34;;;;;;;;;;;22.00;50.20;;;;;;5096257;28;20303;-48
2022/05/05 08:01:01;;;;;;;;;;;22.10;50.90;;;;;;5096311;28;20032;-51
2022/05/05 08:03:28;;;;;;;;;;;22.10;50.30;;;;;;5095878;28;19950;-50
2022/05/05 08:05:56;;;;;;;;;;;22.10;50.30;;;;;;5095941;28;19931;-49
2022/05/05 08:08:23;;;;;;;;;;;22.10;50.20;;;;;;5094329;28;19931;-53
2022/05/05 08:10:53;;;;;;;;;;;22.10;50.20;;;;;;5077969;28;19928;-49
2022/05/05 08:13:20;;;;;;;;;;;22.20;50.30;;;;;;5096498;28;19931;-49
2022/05/05 08:15:47;;;;;;;;;;;22.20;50.30;;;;;;5095657;28;19924;-51
2022/05/05 08:18:14;;;;;;;;;;;22.20;50.30;;;;;;5095767;28;19924;-49
2022/05/05 08:20:41;;;;;;;;;;;22.10;50.20;;;;;;5095249;28;19924;-50
2022/05/05 08:23:08;;;;;;;;;;;22.10;50.30;;;;;;5095994;28;19924;-51
2022/05/05 08:28:29;;;;;;;;;;;22.10;50.30;;;;;;5095102;28;19931;-48
2022/05/05 08:30:56;;;;;;;;;;;22.10;50.30;;;;;;5096403;28;19924;-47
2022/05/05 08:33:27;;;;;;;;;;;22.10;50.30;;;;;;5095829;28;19928;-48
2022/05/05 08:35:54;;;;;;;;;;;22.10;50.40;;;;;;5077371;28;19924;-47
2022/05/05 08:38:21;;;;;;;;;;;22.20;50.40;;;;;;5096254;28;19931;-47
2022/05/05 08:40:49;;;;;;;;;;;22.20;50.40;;;;;;5095839;28;19924;-47
2022/05/05 08:43:16;;;;;;;;;;;22.20;50.40;;;;;;5093351;28;20517;-48
2022/05/05 08:45:45;;;;;;;;;;;22.20;50.40;;;;;;5095464;28;20376;-48
2022/05/05 08:48:12;;;;;;;;;;;22.20;50.40;;;;;;5074939;28;19925;-48
2022/05/05 08:50:41;;;;;;;;;;;22.20;50.40;;;;;;5075002;28;19928;-49
2022/05/05 08:53:08;;;;;;;;;;;22.20;50.40;;;;;;5075402;28;19928;-48
2022/05/05 08:55:35;;;;;;;;;;;22.20;50.40;;;;;;5075366;28;20295;-47
2022/05/05 08:58:02;;;;;;;;;;;22.20;50.40;;;;;;5074579;28;19925;-48
2022/05/05 09:00:29;;;;;;;;;;;22.20;50.40;;;;;;5074565;28;19929;-47
2022/05/05 09:03:00;;;;;;;;;;;22.20;50.40;;;;;;5075408;28;19978;-48
2022/05/05 09:05:42;;;;;;;;;;;22.20;50.40;;;;;;5081916;28;19924;-49
2022/05/05 09:08:12;;;;;;;;;;;22.20;50.40;;;;;;5093948;28;19959;-47
2022/05/05 09:10:43;;;;;;;;;;;22.20;50.30;;;;;;5075375;28;19928;-47
2022/05/05 09:13:10;;;;;;;;;;;22.20;50.30;;;;;;5094955;28;19924;-48
2022/05/05 09:15:43;;;;;;;;;;;22.30;50.40;;;;;;5094965;28;20522;-49
2022/05/05 09:18:25;;;;;;;;;;;22.30;50.40;;;;;;5094807;28;19924;-47
2022/05/05 09:20:52;;;;;;;;;;;22.30;50.40;;;;;;5094443;28;20474;-47
2022/05/05 09:23:25;;;;;;;;;;;22.30;50.40;;;;;;5094177;28;20518;-49
2022/05/05 09:25:53;;;;;;;;;;;22.30;50.40;;;;;;5094664;28;19924;-47
2022/05/05 09:28:21;;;;;;;;;;;22.30;50.40;;;;;;5094640;28;19934;-49
2022/05/05 09:30:49;;;;;;;;;;;22.30;50.40;;;;;;5094606;28;19924;-49
2022/05/05 09:33:37;;;;;;;;;;;22.30;50.30;;;;;;5094344;28;19925;-50
2022/05/05 09:36:05;;;;;;;;;;;22.40;50.40;;;;;;5094518;28;20045;-47
2022/05/05 09:38:50;;;;;;;;;;;22.40;50.40;;;;;;5093370;28;19973;-47
2022/05/05 09:41:19;;;;;;;;;;;22.40;50.30;;;;;;5074057;28;19924;-47
2022/05/05 09:43:47;;;;;;;;;;;22.40;50.20;;;;;;5073874;28;19924;-47
2022/05/05 09:46:34;;;;;;;;;;;22.40;50.20;;;;;;5060131;28;19924;-48
2022/05/05 09:49:04;;;;;;;;;;;22.40;50.80;;;;;;5094116;28;19959;-47
2022/05/05 09:51:31;;;;;;;;;;;22.40;50.20;;;;;;5093975;28;19925;-47
2022/05/05 09:59:45;;;;;;;;;;;22.40;50.30;;;;;;5093720;28;19924;-49
2022/05/05 10:02:16;;;;;;;;;;;22.40;50.30;;;;;;5082879;28;19925;-53
2022/05/05 10:04:49;;;;;;;;;;;22.40;50.40;;;;;;5073596;28;20018;-47
2022/05/05 10:07:18;;;;;;;;;;;22.40;50.40;;;;;;5072906;28;19925;-49
2022/05/05 10:09:47;;;;;;;;;;;22.40;50.40;;;;;;5055536;28;19932;-48
2022/05/05 10:12:15;;;;;;;;;;;22.40;50.50;;;;;;5088270;28;19931;-47
2022/05/05 10:14:43;;;;;;;;;;;22.40;50.50;;;;;;5093243;28;19924;-49
2022/05/05 10:17:11;;;;;;;;;;;22.30;50.50;;;;;;5093953;28;19930;-48
2022/05/05 10:19:38;;;;;;;;;;;22.40;50.60;;;;;;5093699;28;19924;-47
2022/05/05 10:22:11;;;;;;;;;;;22.30;50.50;;;;;;5093063;28;19924;-47
2022/05/05 10:24:58;;;;;;;;;;;22.30;50.50;;;;;;5093164;28;19966;-47
2022/05/05 10:27:25;;;;;;;;;;;22.30;50.50;;;;;;5092911;28;19946;-47
2022/05/05 10:29:52;;;;;;;;;;;22.30;50.50;;;;;;5093316;28;19999;-46
2022/05/05 10:32:21;;;;;;;;;;;22.30;50.50;;;;;;5093188;28;19977;-47
2022/05/05 10:34:52;;;;;;;;;;;22.30;50.50;;;;;;5091385;28;19946;-46
2022/05/05 10:37:22;;;;;;;;;;;22.30;50.50;;;;;;5073002;28;20303;-46
2022/05/05 10:39:50;;;;;;;;;;;22.30;50.50;;;;;;5093171;28;20007;-47
2022/05/05 10:42:29;;;;;;;;;;;22.40;50.60;;;;;;5093212;28;20375;-49
2022/05/05 10:45:04;;;;;;;;;;;22.40;50.50;;;;;;5093246;28;19924;-48
2022/05/05 10:47:46;;;;;;;;;;;22.40;50.50;;;;;;5093049;28;19924;-47
2022/05/05 10:50:33;;;;;;;;;;;22.40;50.40;;;;;;5093269;28;20797;-46
2022/05/05 10:53:01;;;;;;;;;;;22.40;50.40;;;;;;5093342;28;19924;-49
2022/05/05 10:55:34;;;;;;;;;;;22.40;50.40;;;;;;5093125;28;20380;-50
2022/05/05 10:58:40;;;;;;;;;;;22.40;50.40;;;;;;5092532;28;19931;-46
2022/05/05 11:01:10;;;;;;;;;;;22.40;50.40;;;;;;5092955;28;19931;-54
2022/05/05 11:03:37;;;;;;;;;;;22.40;51.10;;;;;;5092619;28;20445;-48
2022/05/05 11:06:17;;;;;;;;;;;22.40;50.50;;;;;;5093297;28;19924;-51
2022/05/05 11:08:53;;;;;;;;;;;22.40;50.50;;;;;;5088729;28;19924;-47
2022/05/05 11:21:31;;;;;;;;;;;22.40;50.40;;;;;;5078296;28;19924;-48
2022/05/05 11:22:44;;;;;;;;;;;22.60;50.20;;;;;;5093266;28;19924;-47
2022/05/05 11:25:11;;;;;;;;;;;22.60;50.20;;;;;;5092271;28;20307;-46
2022/05/05 11:27:38;;;;;;;;;;;22.60;50.10;;;;;;5093028;28;19934;-46
2022/05/05 11:30:05;;;;;;;;;;;22.60;50.10;;;;;;5093131;28;19924;-48
2022/05/05 11:32:33;;;;;;;;;;;22.60;50.10;;;;;;5093194;28;19939;-46
2022/05/05 11:35:01;;;;;;;;;;;22.60;50.10;;;;;;5096747;28;19924;-45
2022/05/05 11:37:29;;;;;;;;;;;22.60;50.20;;;;;;5096964;28;19931;-46
2022/05/05 11:39:59;;;;;;;;;;;22.60;50.20;;;;;;5096940;28;19924;-46
2022/05/05 11:42:27;;;;;;;;;;;22.60;50.20;;;;;;5096954;28;19924;-47
2022/05/05 11:44:54;;;;;;;;;;;22.60;50.20;;;;;;5097048;28;19955;-46
2022/05/05 11:47:22;;;;;;;;;;;22.50;50.20;;;;;;5096149;28;19924;-46
2022/05/05 11:49:52;;;;;;;;;;;22.50;50.10;;;;;;5096440;28;19936;-47
2022/05/05 11:52:21;;;;;;;;;;;22.50;50.10;;;;;;5096381;28;19928;-50
2022/05/05 11:54:52;;;;;;;;;;;22.50;50.20;;;;;;5084879;28;19924;-48
2022/05/05 11:57:39;;;;;;;;;;;22.50;50.20;;;;;;5076684;28;20328;-47
2022/05/05 12:02:54;;;;;;;;;;;22.50;50.20;;;;;;5075571;28;19924;-47
2022/05/05 12:05:22;;;;;;;;;;;22.50;50.10;;;;;;5095925;28;19931;-47
2022/05/05 12:07:50;;;;;;;;;;;22.60;50.20;;;;;;5095884;28;19935;-45
2022/05/05 12:10:18;;;;;;;;;;;22.50;50.10;;;;;;5113334;28;19923;-47
2022/05/05 12:12:49;;;;;;;;;;;22.50;50.20;;;;;;5097739;28;19924;-46
2022/05/05 12:15:17;;;;;;;;;;;22.50;50.10;;;;;;5095859;28;19967;-46
2022/05/05 12:17:50;;;;;;;;;;;22.60;50.20;;;;;;5095840;28;19924;-46
2022/05/05 12:20:19;;;;;;;;;;;22.50;50.20;;;;;;5095808;28;19971;-47
2022/05/05 12:22:59;;;;;;;;;;;22.50;50.20;;;;;;5096198;28;19947;-48
2022/05/05 12:25:27;;;;;;;;;;;22.50;50.20;;;;;;5095507;28;19924;-47
2022/05/05 12:28:00;;;;;;;;;;;22.50;50.30;;;;;;5092601;28;20303;-47
2022/05/05 12:30:33;;;;;;;;;;;22.50;50.30;;;;;;5095182;28;19924;-46
2022/05/05 12:33:01;;;;;;;;;;;22.50;50.30;;;;;;5095832;28;19924;-46
2022/05/05 12:35:35;;;;;;;;;;;22.50;50.30;;;;;;5094969;28;19977;-49
2022/05/05 12:38:03;;;;;;;;;;;22.50;50.30;;;;;;5096559;28;19947;-48
2022/05/05 12:40:30;;;;;;;;;;;22.50;50.30;;;;;;5095416;28;19932;-46
2022/05/05 12:43:00;;;;;;;;;;;22.50;50.30;;;;;;5095392;28;19924;-48
2022/05/05 12:45:30;;;;;;;;;;;22.50;50.30;;;;;;5095683;28;19928;-50
2022/05/05 12:47:58;;;;;;;;;;;22.50;50.30;;;;;;5095237;28;19925;-48
2022/05/05 12:50:25;;;;;;;;;;;22.50;50.30;;;;;;5094779;28;19924;-50
2022/05/05 13:01:19;;;;;;;;;;;22.50;50.20;;;;;;5094930;28;20450;-50
2022/05/05 13:03:46;;;;;;;;;;;22.50;50.20;;;;;;5095315;28;19924;-51
2022/05/05 13:06:13;;;;;;;;;;;22.50;50.20;;;;;;5094787;28;20409;-48
2022/05/05 13:08:52;;;;;;;;;;;22.60;50.20;;;;;;5089815;28;19976;-47
2022/05/05 13:11:20;;;;;;;;;;;22.60;50.20;;;;;;5081196;28;19931;-47
2022/05/05 13:13:48;;;;;;;;;;;22.60;50.10;;;;;;5094873;28;19924;-47
2022/05/05 13:16:19;;;;;;;;;;;22.60;50.10;;;;;;5094882;28;19950;-47
2022/05/05 13:18:46;;;;;;;;;;;22.60;50.00;;;;;;5094476;28;19928;-47
2022/05/05 13:21:13;;;;;;;;;;;22.60;50.10;;;;;;5094243;28;19924;-49
2022/05/05 13:23:41;;;;;;;;;;;22.60;50.10;;;;;;5092382;28;19977;-48
2022/05/05 13:26:10;;;;;;;;;;;22.60;50.20;;;;;;5094325;28;20452;-48
2022/05/05 13:28:38;;;;;;;;;;;22.60;50.20;;;;;;5094554;28;19928;-48
2022/05/05 13:31:05;;;;;;;;;;;22.60;50.20;;;;;;5094183;28;19924;-49
2022/05/05 13:33:32;;;;;;;;;;;22.60;50.20;;;;;;5094133;28;19924;-47
2022/05/05 13:35:59;;;;;;;;;;;22.60;50.20;;;;;;5094781;28;19931;-47
2022/05/05 13:38:27;;;;;;;;;;;22.60;50.20;;;;;;5094781;28;19931;-50
2022/05/05 13:41:14;;;;;;;;;;;22.60;50.20;;;;;;5094281;28;19923;-47
2022/05/05 13:43:41;;;;;;;;;;;22.60;50.20;;;;;;5094218;28;19924;-49
2022/05/05 13:46:09;;;;;;;;;;;22.60;50.30;;;;;;5094202;28;19924;-47
2022/05/05 13:48:36;;;;;;;;;;;22.50;50.30;;;;;;5093988;28;19924;-48
2022/05/05 13:51:04;;;;;;;;;;;22.50;50.30;;;;;;5093835;28;19924;-46
2022/05/05 13:53:32;;;;;;;;;;;22.50;50.40;;;;;;5093999;28;19931;-47
2022/05/05 13:56:00;;;;;;;;;;;22.50;50.40;;;;;;5093746;28;19932;-49
2022/05/05 13:58:29;;;;;;;;;;;22.50;50.40;;;;;;5094098;28;19928;-48
2022/05/05 14:00:56;;;;;;;;;;;22.50;50.40;;;;;;5093970;28;20201;-47
2022/05/05 14:03:23;;;;;;;;;;;22.50;50.40;;;;;;5093932;28;19924;-48
2022/05/05 14:05:50;;;;;;;;;;;22.50;50.40;;;;;;5093756;28;19924;-48
2022/05/05 14:13:48;;;;;;;;;;;22.50;50.40;;;;;;5085782;28;20037;-54
2022/05/05 14:16:15;;;;;;;;;;;22.60;50.50;;;;;;5093751;28;19928;-53
2022/05/05 14:18:42;;;;;;;;;;;22.50;50.40;;;;;;5093555;28;19931;-53
2022/05/05 14:21:09;;;;;;;;;;;22.50;50.40;;;;;;5091650;28;19935;-55
2022/05/05 14:23:36;;;;;;;;;;;22.50;50.40;;;;;;5093187;28;20388;-53
2022/05/05 14:26:03;;;;;;;;;;;22.50;50.40;;;;;;5093537;28;19924;-55
2022/05/05 14:28:31;;;;;;;;;;;22.50;50.50;;;;;;5093093;28;19924;-53
2022/05/05 14:30:58;;;;;;;;;;;22.50;50.60;;;;;;5093349;28;19931;-55
2022/05/05 14:33:25;;;;;;;;;;;22.50;50.60;;;;;;5093097;28;19924;-55
2022/05/05 14:35:52;;;;;;;;;;;22.50;50.60;;;;;;5093020;28;19924;-49
2022/05/05 14:38:19;;;;;;;;;;;22.50;50.60;;;;;;5100204;28;20383;-53
2022/05/05 14:40:46;;;;;;;;;;;22.50;50.60;;;;;;5113646;28;20387;-51
2022/05/05 14:43:14;;;;;;;;;;;22.40;50.60;;;;;;5104759;28;19931;-52
2022/05/05 14:45:42;;;;;;;;;;;22.50;51.30;;;;;;5092958;28;19928;-50
2022/05/05 14:48:09;;;;;;;;;;;22.40;50.60;;;;;;5092888;28;19931;-48
2022/05/05 14:50:36;;;;;;;;;;;22.50;50.70;;;;;;5092832;28;19927;-47
2022/05/05 14:53:03;;;;;;;;;;;22.40;50.60;;;;;;5093208;28;19924;-47
2022/05/05 14:55:30;;;;;;;;;;;22.50;50.70;;;;;;5093049;28;20295;-47
2022/05/05 14:57:59;;;;;;;;;;;22.50;51.30;;;;;;5093066;28;19932;-48
2022/05/05 15:00:26;;;;;;;;;;;22.50;50.70;;;;;;5092971;28;19932;-47
2022/05/05 15:02:53;;;;;;;;;;;22.50;50.70;;;;;;5092566;28;19924;-48
2022/05/05 15:05:22;;;;;;;;;;;22.40;50.60;;;;;;5092812;28;19954;-48
2022/05/05 15:07:49;;;;;;;;;;;22.50;50.70;;;;;;5092050;28;19925;-50
2022/05/05 15:10:16;;;;;;;;;;;22.50;50.60;;;;;;5089373;28;19924;-52
2022/05/05 15:12:43;;;;;;;;;;;22.50;50.60;;;;;;5092817;28;19932;-48
2022/05/05 15:15:10;;;;;;;;;;;22.50;50.60;;;;;;5092673;28;20391;-50
2022/05/05 15:17:37;;;;;;;;;;;22.50;50.60;;;;;;5074727;28;19928;-48